Allendale, Massachusetts
Current Conditions -  °F | °C
As of 3:38 AM on Monday 24 Nov 2014 (Local Time) from KPSF Reporting Station
Light Rain Light Rain  
Wind Chill: 44°   Ceiling: 1300
Heat Index: 47°   Visibility: 5mi
Dew Point: 45°   Wind: 7mph
Humidity: 93%   Direction: NA
Pressure: 29.83"   Gusts: 17mph
Location:  42.4608°N, 73.282°W
Report Text: KPSF 240838Z AUTO VRB06G15KT 5SM -RA BR BKN013 OVC018 08/07 A2983 RMK AO2 PRESFR P0004 T00830072
Loading
Personal Weather Stations






























Interactive Weather Map New forecast layout! Learn more

10-Day Weather Forecast

Advertisements
Track Severe Weather on mobile